Buenopolis, Brazil
Current Conditions -  °F | °C
As of 12:00 PM on Thursday 29 Jan 2015 (Local Time) from SBMK Reporting Station
Few Clouds Few Clouds  
Wind Chill: 90°   Ceiling: Unl
Heat Index: 90°   Visibility: 6mi
Dew Point: 55°   Wind: 6mph
Humidity: 31%   Direction: NA
Pressure: 30.03"   Gusts: NA
Location:  17.87°S, 44.18°W
Report Text: SBMK 291400Z VRB05KT 9999 FEW030 32/13 Q1017
Loading
Personal Weather Stations






























Interactive Weather Map New forecast layout! Learn more

10-Day Weather Forecast

Advertisements
Track Severe Weather on mobile